Messwerte Belo Horizonte

Temperatur

Temperatur
°C
1574161200 9.00 9.00 22
1574164800 10.00 10.00 24
1574168400 11.00 11.00 26
1574172000 12.00 12.00 27
1574175600 13.00 13.00 28
1574179200 14.00 14.00
1574182800 15.00 15.00 24
1574186400 16.00 16.00 22
1574190000 17.00 17.00 23
1574193600 18.00 18.00
1574197200 19.00 19.00 22
1574200800 20.00 20.00 22
1574204400 21.00 21.00 22
1574208000 22.00 22.00 22
1574211600 23.00 23.00 22
1574215200 0.00 0.00 22
1574218800 1.00 1.00 21
1574222400 2.00 2.00
1574226000 3.00 3.00 21
1574229600 4.00 4.00
1574233200 5.00 5.00 20
1574236800 6.00 6.00 20
1574240400 7.00 7.00 20
1574244000 8.00 8.00 21

Aktuellste Messwerte

Wettercharakter
Wetter: wechselnd bewölkt
Temperatur
21 °C
Feuchtigkeit
80 %
Wind
20 km/hWindrichtung: Südost
Luftdruck
1019 hPa
Messzeit: 20. November 2019, 8.00Datenquelle: METAR

Weitere Messstationen in der Nähe

Messstation Temperatur Entfernung
Confins 20 °C 26 km
Santa Cruz 22 °C 329 km
Rio de Janeiro 22 °C 338 km
Rio de Janeiro / Deodoro 23 °C 341 km
Campos 23 °C 344 km
Montes Claros 22 °C 348 km
Rio de Janeiro 23 °C 348 km

Wind

Windrichtung Böen Mittelwind
° km/h km/h
1574161200 9.00 8.00 - 9.00 70° 5
1574164800 10.00 9.00 - 10.00 90° 10
1574168400 11.00 10.00 - 11.00 100° 5
1574172000 12.00 11.00 - 12.00 270° 5
1574175600 13.00 12.00 - 13.00 0
1574179200 14.00 13.00 - 14.00
1574182800 15.00 14.00 - 15.00 30° 15
1574186400 16.00 15.00 - 16.00 60° 5
1574190000 17.00 16.00 - 17.00 250° 5
1574193600 18.00 17.00 - 18.00
1574197200 19.00 18.00 - 19.00 0
1574200800 20.00 19.00 - 20.00 0
1574204400 21.00 20.00 - 21.00 90° 5
1574208000 22.00 21.00 - 22.00 90° 5
1574211600 23.00 22.00 - 23.00 80° 10
1574215200 0.00 23.00 - 0.00 100° 10
1574218800 1.00 0.00 - 1.00 110° 15
1574222400 2.00 1.00 - 2.00
1574226000 3.00 2.00 - 3.00 90° 10
1574229600 4.00 3.00 - 4.00
1574233200 5.00 4.00 - 5.00 90° 10
1574236800 6.00 5.00 - 6.00 100° 15
1574240400 7.00 6.00 - 7.00 100° 15
1574244000 8.00 7.00 - 8.00 120° 20

Ihre Wetterstation

Fehlt Ihre Wetterstation auf unserem Portal?

Schreiben Sie an network@meteonews.ch